createdAt,value
2022-12-18T00:00:45.342Z,20.43
2022-12-18T00:03:11.983Z,21.70
2022-12-18T00:05:38.661Z,22.53
2022-12-18T00:08:09.338Z,20.83
2022-12-18T00:10:36.206Z,21.27
2022-12-18T00:13:05.281Z,20.33
2022-12-18T00:15:35.119Z,19.37
2022-12-18T00:18:03.610Z,21.67
2022-12-18T00:20:30.359Z,22.17
2022-12-18T00:22:56.965Z,20.13
2022-12-18T00:25:23.626Z,21.10
2022-12-18T00:27:50.576Z,19.47
2022-12-18T00:30:17.472Z,18.87
2022-12-18T00:32:44.080Z,19.13
2022-12-18T00:35:12.159Z,21.73
2022-12-18T00:37:38.747Z,20.13
2022-12-18T00:40:06.403Z,20.40
2022-12-18T00:42:51.541Z,18.90
2022-12-18T00:45:18.326Z,18.80
2022-12-18T00:47:44.928Z,22.90
2022-12-18T00:50:12.847Z,21.57
2022-12-18T00:52:39.434Z,20.10
2022-12-18T00:55:06.825Z,20.00
2022-12-18T00:57:33.418Z,18.47
2022-12-18T00:59:59.932Z,18.90
2022-12-18T01:02:26.588Z,20.93
2022-12-18T01:04:53.318Z,19.93
2022-12-18T01:07:21.227Z,19.93
2022-12-18T01:09:47.768Z,19.00
2022-12-18T01:12:14.296Z,19.47
2022-12-18T01:14:40.851Z,19.07
2022-12-18T01:17:07.413Z,18.30
2022-12-18T01:19:34.162Z,20.27
2022-12-18T01:22:00.821Z,17.77
2022-12-18T01:24:28.705Z,18.90
2022-12-18T01:26:55.256Z,17.87
2022-12-18T01:29:21.787Z,17.17
2022-12-18T01:31:48.350Z,19.60
2022-12-18T01:34:15.171Z,18.73
2022-12-18T01:36:41.700Z,18.00
2022-12-18T01:39:11.620Z,17.00
2022-12-18T01:41:58.706Z,18.70
2022-12-18T01:45:07.855Z,21.23
2022-12-18T01:47:39.308Z,19.48
2022-12-18T01:50:11.265Z,18.00
2022-12-18T01:52:39.312Z,17.03
2022-12-18T01:55:07.848Z,16.53
2022-12-18T01:57:36.588Z,17.90
2022-12-18T02:00:06.932Z,19.17
2022-12-18T02:02:33.838Z,18.10
2022-12-18T02:05:01.194Z,16.67
2022-12-18T02:07:36.958Z,19.00
2022-12-18T02:10:10.668Z,19.20
2022-12-18T02:12:45.978Z,17.10
2022-12-18T02:15:19.537Z,18.40
2022-12-18T02:17:51.056Z,17.47
2022-12-18T02:20:20.914Z,16.57
2022-12-18T02:23:01.888Z,17.57
2022-12-18T02:25:46.953Z,21.70
2022-12-18T02:28:17.841Z,20.87
2022-12-18T02:30:49.078Z,20.27
2022-12-18T02:33:16.772Z,18.48
2022-12-18T02:35:45.748Z,17.97
2022-12-18T02:38:14.658Z,16.13
2022-12-18T02:40:42.933Z,18.45
2022-12-18T02:43:11.036Z,16.50
2022-12-18T02:45:48.826Z,20.43
2022-12-18T02:48:16.188Z,18.77
2022-12-18T02:50:52.337Z,20.07
2022-12-18T02:53:25.596Z,17.87
2022-12-18T02:55:59.587Z,18.80
2022-12-18T02:58:35.255Z,19.47
2022-12-18T03:01:10.808Z,20.90
2022-12-18T03:03:42.355Z,18.47
2022-12-18T03:06:14.596Z,18.27
2022-12-18T03:08:45.994Z,19.17
2022-12-18T03:11:14.192Z,19.27
2022-12-18T03:13:46.034Z,17.90
2022-12-18T03:16:18.835Z,17.77
2022-12-18T03:18:50.306Z,19.30
2022-12-18T03:21:22.128Z,17.70
2022-12-18T03:23:52.302Z,18.53
2022-12-18T03:26:22.463Z,17.50
2022-12-18T03:28:53.768Z,17.67
2022-12-18T03:31:24.039Z,17.47
2022-12-18T03:33:53.922Z,18.67
2022-12-18T03:38:47.065Z,19.93
2022-12-18T03:41:20.696Z,22.77
2022-12-18T03:43:52.020Z,18.57
2022-12-18T03:46:28.099Z,21.83
2022-12-18T03:49:02.179Z,19.03
2022-12-18T03:51:35.701Z,20.47
2022-12-18T03:54:05.256Z,19.07
2022-12-18T03:56:36.301Z,17.23
2022-12-18T03:59:05.481Z,19.07
2022-12-18T04:01:36.984Z,17.35
2022-12-18T04:04:05.947Z,19.87
2022-12-18T04:06:33.099Z,17.13
2022-12-18T04:09:00.028Z,19.50
2022-12-18T04:11:26.893Z,16.00
2022-12-18T04:13:58.407Z,17.07
2022-12-18T04:16:25.074Z,16.60
2022-12-18T04:18:53.362Z,20.23
2022-12-18T04:21:20.310Z,18.67
2022-12-18T04:23:47.006Z,18.20
2022-12-18T04:26:13.597Z,17.27
2022-12-18T04:28:40.131Z,16.73
2022-12-18T04:31:06.792Z,17.63
2022-12-18T04:33:33.477Z,17.40
2022-12-18T04:36:01.352Z,16.50
2022-12-18T04:38:27.905Z,16.00
2022-12-18T04:40:54.442Z,17.37
2022-12-18T04:43:21.056Z,17.13
2022-12-18T04:45:47.652Z,17.87
2022-12-18T04:48:14.348Z,16.90
2022-12-18T04:50:40.890Z,16.20
2022-12-18T04:53:08.938Z,17.93
2022-12-18T04:55:36.588Z,16.40
2022-12-18T04:58:03.165Z,16.27
2022-12-18T05:00:29.854Z,17.13
2022-12-18T05:02:56.486Z,16.87
2022-12-18T05:05:23.256Z,16.47
2022-12-18T05:07:50.052Z,16.70
2022-12-18T05:10:18.033Z,18.40
2022-12-18T05:13:01.266Z,17.00
2022-12-18T05:15:29.551Z,15.03
2022-12-18T05:17:56.853Z,16.93
2022-12-18T05:20:23.480Z,16.33
2022-12-18T05:22:50.867Z,16.53
2022-12-18T05:25:19.319Z,18.47
2022-12-18T05:27:46.529Z,18.20
2022-12-18T05:30:16.983Z,17.00
2022-12-18T05:32:44.070Z,17.33
2022-12-18T05:35:11.789Z,17.90
2022-12-18T05:37:42.929Z,18.77
2022-12-18T05:40:11.345Z,17.07
2022-12-18T05:42:39.537Z,17.63
2022-12-18T05:45:07.283Z,17.73
2022-12-18T05:47:33.852Z,17.03
2022-12-18T05:50:00.415Z,17.67
2022-12-18T05:52:26.994Z,16.63
2022-12-18T05:54:53.545Z,18.23
2022-12-18T05:57:20.164Z,17.83
2022-12-18T05:59:48.084Z,16.63
2022-12-18T06:02:14.783Z,16.83
2022-12-18T06:04:41.467Z,17.30
2022-12-18T06:07:08.140Z,17.50
2022-12-18T06:09:34.744Z,16.13
2022-12-18T06:12:01.304Z,16.27
2022-12-18T06:14:28.131Z,16.10
2022-12-18T06:16:56.088Z,16.50
2022-12-18T06:19:22.689Z,17.20
2022-12-18T06:21:50.209Z,18.30
2022-12-18T06:24:17.116Z,18.33
2022-12-18T06:26:43.726Z,17.10
2022-12-18T06:29:10.410Z,15.83
2022-12-18T06:31:37.038Z,16.33
2022-12-18T06:34:05.697Z,16.80
2022-12-18T06:36:32.663Z,16.30
2022-12-18T06:38:59.494Z,16.60
2022-12-18T06:41:26.348Z,15.73
2022-12-18T06:43:58.153Z,16.27
2022-12-18T06:46:26.561Z,17.37
2022-12-18T06:48:53.705Z,16.20
2022-12-18T06:51:23.356Z,15.77
2022-12-18T06:53:50.735Z,14.93
2022-12-18T06:56:17.500Z,16.40
2022-12-18T06:58:44.576Z,15.63
2022-12-18T07:01:12.500Z,16.17
2022-12-18T07:03:40.246Z,15.90
2022-12-18T07:06:07.714Z,17.00
2022-12-18T07:08:35.649Z,16.43
2022-12-18T07:11:05.288Z,16.63
2022-12-18T07:13:31.912Z,15.93
2022-12-18T07:16:06.794Z,16.40
2022-12-18T07:18:35.318Z,15.27
2022-12-18T07:21:04.552Z,15.57
2022-12-18T07:23:32.774Z,17.90
2022-12-18T07:26:03.801Z,16.27
2022-12-18T07:28:30.344Z,15.80
2022-12-18T07:30:56.903Z,16.07
2022-12-18T07:33:23.508Z,16.00
2022-12-18T07:35:50.042Z,15.47
2022-12-18T07:38:16.598Z,15.17
2022-12-18T07:40:43.142Z,17.07
2022-12-18T07:43:11.030Z,17.80
2022-12-18T07:45:37.607Z,15.40
2022-12-18T07:48:04.469Z,13.43
2022-12-18T07:50:31.003Z,14.07
2022-12-18T07:52:57.607Z,16.37
2022-12-18T07:55:24.143Z,16.87
2022-12-18T07:57:52.676Z,13.87
2022-12-18T08:00:22.401Z,14.10
2022-12-18T08:02:49.018Z,15.43
2022-12-18T08:05:15.919Z,15.27
2022-12-18T08:07:42.477Z,14.30
2022-12-18T08:10:09.634Z,17.00
2022-12-18T08:12:36.254Z,16.27
2022-12-18T08:15:02.818Z,15.40
2022-12-18T08:17:31.001Z,16.60
2022-12-18T08:19:57.530Z,14.93
2022-12-18T08:22:24.132Z,14.37
2022-12-18T08:24:50.881Z,15.13
2022-12-18T08:27:32.747Z,15.17
2022-12-18T08:29:59.681Z,15.83
2022-12-18T08:32:26.285Z,15.33
2022-12-18T08:34:54.523Z,14.80
2022-12-18T08:37:21.090Z,17.03
2022-12-18T08:39:47.663Z,14.93
2022-12-18T08:42:32.920Z,14.60
2022-12-18T08:44:59.642Z,15.63
2022-12-18T08:47:27.003Z,14.70
2022-12-18T08:49:54.909Z,15.00
2022-12-18T08:52:21.492Z,14.37
2022-12-18T08:54:48.048Z,13.63
2022-12-18T08:57:14.680Z,17.60
2022-12-18T08:59:41.295Z,15.67
2022-12-18T09:02:09.446Z,13.83
2022-12-18T09:04:36.138Z,13.83
2022-12-18T09:07:04.062Z,15.50
2022-12-18T09:09:30.668Z,14.93
2022-12-18T09:11:57.223Z,14.03
2022-12-18T09:14:23.782Z,15.43
2022-12-18T09:16:50.401Z,15.40
2022-12-18T09:19:17.322Z,15.73
2022-12-18T09:21:48.099Z,13.90
2022-12-18T09:24:17.387Z,15.27
2022-12-18T09:26:46.991Z,13.40
2022-12-18T09:29:14.247Z,14.53
2022-12-18T09:31:41.527Z,14.63
2022-12-18T09:34:08.332Z,15.67
2022-12-18T09:36:34.929Z,13.77
2022-12-18T09:39:05.118Z,14.07
2022-12-18T09:41:45.466Z,14.80
2022-12-18T09:44:19.318Z,13.90
2022-12-18T09:46:49.593Z,14.57
2022-12-18T09:49:19.936Z,13.23
2022-12-18T09:51:52.098Z,14.23
2022-12-18T09:54:23.876Z,14.20
2022-12-18T09:56:51.967Z,14.87
2022-12-18T09:59:24.604Z,13.03
2022-12-18T10:01:51.392Z,13.57
2022-12-18T10:04:18.137Z,12.77
2022-12-18T10:06:51.114Z,13.53
2022-12-18T10:09:37.835Z,13.13
2022-12-18T10:12:15.067Z,13.43
2022-12-18T10:14:50.848Z,12.97
2022-12-18T10:17:26.205Z,14.37
2022-12-18T10:19:55.855Z,14.07
2022-12-18T10:22:32.877Z,12.27
2022-12-18T10:25:05.623Z,13.57
2022-12-18T10:27:35.422Z,14.37
2022-12-18T10:30:05.278Z,14.53
2022-12-18T10:32:33.958Z,13.83
2022-12-18T10:35:01.228Z,15.07
2022-12-18T10:37:29.920Z,13.57
2022-12-18T10:40:10.175Z,15.20
2022-12-18T10:42:38.382Z,15.60
2022-12-18T10:45:10.824Z,15.40
2022-12-18T10:47:42.556Z,14.40
2022-12-18T10:50:21.504Z,14.80
2022-12-18T10:52:55.693Z,13.95
2022-12-18T10:55:23.472Z,13.00
2022-12-18T10:57:52.024Z,15.07
2022-12-18T11:00:25.604Z,15.23
2022-12-18T11:02:53.357Z,13.57
2022-12-18T11:05:30.059Z,14.77
2022-12-18T11:07:57.619Z,14.50
2022-12-18T11:10:29.546Z,13.83
2022-12-18T11:13:11.028Z,12.93
2022-12-18T11:15:38.088Z,13.43
2022-12-18T11:18:05.118Z,13.63
2022-12-18T11:20:35.448Z,14.03
2022-12-18T11:23:04.809Z,19.77
2022-12-18T11:25:34.677Z,14.55
2022-12-18T11:28:05.809Z,15.33
2022-12-18T11:30:34.378Z,14.50
2022-12-18T11:33:06.380Z,15.63
2022-12-18T11:35:46.590Z,14.23
2022-12-18T11:38:22.062Z,14.00
2022-12-18T11:40:55.737Z,13.83
2022-12-18T11:43:30.041Z,14.20
2022-12-18T11:46:02.723Z,15.50
2022-12-18T11:48:34.173Z,15.23
2022-12-18T11:51:06.003Z,16.03
2022-12-18T11:53:32.709Z,14.07
2022-12-18T11:56:18.374Z,15.97
2022-12-18T11:58:50.555Z,17.23
2022-12-18T12:01:29.894Z,14.87
2022-12-18T12:04:45.209Z,17.70
2022-12-18T12:07:24.969Z,15.23
2022-12-18T12:10:01.780Z,14.00
2022-12-18T12:12:50.172Z,16.87
2022-12-18T12:15:33.198Z,16.83
2022-12-18T12:18:11.264Z,19.30
2022-12-18T12:20:50.510Z,16.57
2022-12-18T12:23:27.981Z,14.88
2022-12-18T12:26:01.153Z,16.83
2022-12-18T12:28:46.067Z,17.53
2022-12-18T12:31:27.895Z,18.43
2022-12-18T12:34:02.194Z,17.20
2022-12-18T12:36:36.281Z,17.03
2022-12-18T12:39:08.498Z,16.70
2022-12-18T12:41:57.838Z,16.23
2022-12-18T12:44:29.011Z,16.70
2022-12-18T12:47:01.453Z,16.53
2022-12-18T12:49:35.240Z,18.27
2022-12-18T12:52:11.908Z,16.70
2022-12-18T12:54:39.459Z,17.90
2022-12-18T12:57:10.460Z,15.50
2022-12-18T12:59:46.950Z,15.33
2022-12-18T13:02:23.323Z,17.03
2022-12-18T13:04:56.909Z,15.57
2022-12-18T13:07:29.585Z,15.43
2022-12-18T13:10:27.561Z,15.23
2022-12-18T13:12:57.841Z,15.10
2022-12-18T13:15:31.446Z,15.32
2022-12-18T13:18:21.369Z,14.70
2022-12-18T13:20:55.357Z,16.17
2022-12-18T13:23:34.163Z,16.27
2022-12-18T13:26:28.139Z,16.27
2022-12-18T13:28:58.257Z,16.13
2022-12-18T13:32:07.822Z,15.30
2022-12-18T13:34:36.551Z,15.27
2022-12-18T13:37:41.920Z,14.30
2022-12-18T13:40:53.522Z,15.13
2022-12-18T13:43:27.951Z,15.13
2022-12-18T13:46:06.678Z,13.87
2022-12-18T13:48:35.309Z,16.23
2022-12-18T13:51:06.637Z,14.87
2022-12-18T13:53:39.560Z,15.07
2022-12-18T13:56:07.148Z,15.97
2022-12-18T13:58:34.275Z,15.23
2022-12-18T14:01:03.030Z,16.70
2022-12-18T14:03:30.646Z,16.97
2022-12-18T14:06:01.109Z,15.27
2022-12-18T14:08:35.046Z,14.97
2022-12-18T14:11:04.189Z,14.70
2022-12-18T14:13:35.091Z,14.37
2022-12-18T14:16:04.431Z,15.10
2022-12-18T14:21:03.648Z,14.00
2022-12-18T14:23:34.822Z,15.63
2022-12-18T14:26:06.116Z,15.57
2022-12-18T14:28:33.030Z,15.10
2022-12-18T14:30:59.788Z,15.73
2022-12-18T14:33:28.681Z,15.20
2022-12-18T14:35:58.221Z,14.93
2022-12-18T14:38:28.789Z,14.57
2022-12-18T14:40:58.705Z,15.20
2022-12-18T14:43:25.499Z,13.43
2022-12-18T14:45:52.675Z,14.27
2022-12-18T14:48:23.450Z,14.17
2022-12-18T14:50:59.342Z,14.53
2022-12-18T14:53:35.219Z,14.73
2022-12-18T14:56:04.243Z,14.43
2022-12-18T14:58:31.017Z,15.43
2022-12-18T15:00:58.099Z,15.13
2022-12-18T15:03:24.797Z,15.13
2022-12-18T15:05:52.794Z,14.20
2022-12-18T15:08:32.478Z,15.17
2022-12-18T15:10:59.589Z,13.40
2022-12-18T15:13:27.664Z,14.97
2022-12-18T15:15:57.053Z,14.43
2022-12-18T15:18:32.843Z,15.07
2022-12-18T15:21:07.958Z,15.07
2022-12-18T15:23:39.007Z,16.27
2022-12-18T15:26:07.752Z,13.90
2022-12-18T15:28:40.497Z,13.93
2022-12-18T15:31:23.722Z,13.50
2022-12-18T15:34:21.255Z,14.77
2022-12-18T15:36:47.990Z,14.53
2022-12-18T15:39:14.765Z,15.17
2022-12-18T15:41:41.457Z,13.97
2022-12-18T15:44:26.400Z,13.13
2022-12-18T15:46:52.950Z,14.10
2022-12-18T15:49:19.563Z,14.37
2022-12-18T15:51:49.784Z,15.17
2022-12-18T15:54:38.978Z,14.23
2022-12-18T15:57:23.850Z,15.13
2022-12-18T15:59:53.790Z,15.10
2022-12-18T16:02:21.743Z,13.30
2022-12-18T16:04:48.490Z,13.93
2022-12-18T16:07:21.489Z,13.73
2022-12-18T16:09:52.210Z,13.07
2022-12-18T16:12:21.913Z,14.13
2022-12-18T16:14:48.920Z,14.07
2022-12-18T16:17:17.209Z,14.80
2022-12-18T16:19:43.875Z,14.83
2022-12-18T16:22:21.555Z,12.83
2022-12-18T16:24:48.795Z,13.70
2022-12-18T16:27:15.411Z,14.37
2022-12-18T16:29:42.040Z,14.77
2022-12-18T16:32:12.825Z,14.90
2022-12-18T16:34:40.806Z,13.07
2022-12-18T16:37:09.797Z,13.67
2022-12-18T16:39:37.857Z,15.05
2022-12-18T16:42:06.369Z,14.20
2022-12-18T16:44:33.120Z,13.47
2022-12-18T16:47:02.683Z,14.47
2022-12-18T16:49:29.778Z,13.05
2022-12-18T16:51:57.758Z,14.37
2022-12-18T16:54:24.983Z,15.07
2022-12-18T16:56:52.346Z,14.70
2022-12-18T16:59:19.206Z,15.87
2022-12-18T17:01:47.218Z,13.83
2022-12-18T17:04:14.914Z,13.50
2022-12-18T17:06:43.414Z,13.13
2022-12-18T17:09:15.152Z,13.40
2022-12-18T17:11:41.921Z,13.93
2022-12-18T17:14:10.596Z,15.37
2022-12-18T17:16:37.264Z,12.93
2022-12-18T17:19:05.414Z,14.30
2022-12-18T17:21:32.047Z,13.20
2022-12-18T17:24:00.399Z,13.40
2022-12-18T17:26:29.748Z,11.83
2022-12-18T17:28:57.561Z,13.82
2022-12-18T17:31:26.832Z,13.40
2022-12-18T17:33:53.891Z,12.38
2022-12-18T17:36:21.315Z,13.30
2022-12-18T17:38:51.255Z,13.77
2022-12-18T17:41:18.030Z,13.87
2022-12-18T17:43:51.101Z,14.40
2022-12-18T17:46:17.707Z,13.13
2022-12-18T17:48:44.269Z,13.70
2022-12-18T17:51:11.549Z,14.93
2022-12-18T17:53:41.815Z,15.37
2022-12-18T17:56:12.838Z,15.93
2022-12-18T17:58:40.365Z,14.40
2022-12-18T18:01:09.038Z,15.30
2022-12-18T18:03:41.443Z,15.10
2022-12-18T18:06:08.694Z,14.83
2022-12-18T18:08:35.925Z,15.30
2022-12-18T18:11:25.097Z,15.80
2022-12-18T18:14:00.763Z,14.70
2022-12-18T18:16:30.067Z,15.57
2022-12-18T18:18:58.361Z,15.27
2022-12-18T18:21:25.034Z,16.60
2022-12-18T18:23:52.424Z,15.90
2022-12-18T18:26:19.852Z,16.50
2022-12-18T18:28:46.639Z,14.90
2022-12-18T18:31:13.489Z,14.87
2022-12-18T18:33:42.009Z,14.60
2022-12-18T18:36:11.097Z,15.40
2022-12-18T18:38:37.955Z,16.23
2022-12-18T18:41:05.542Z,15.13
2022-12-18T18:43:32.151Z,15.37
2022-12-18T18:46:00.972Z,16.10
2022-12-18T18:48:30.671Z,14.07
2022-12-18T18:51:02.143Z,14.83
2022-12-18T18:56:34.514Z,14.73
2022-12-18T18:58:44.505Z,15.68
2022-12-18T19:01:14.196Z,15.83
2022-12-18T19:03:41.379Z,14.70
2022-12-18T19:06:14.258Z,15.03
2022-12-18T19:08:41.340Z,15.50
2022-12-18T19:11:35.918Z,15.23
2022-12-18T19:14:04.346Z,15.80
2022-12-18T19:16:31.785Z,17.43
2022-12-18T19:19:01.772Z,17.97
2022-12-18T19:21:34.062Z,19.97
2022-12-18T19:24:02.630Z,19.23
2022-12-18T19:26:29.860Z,17.43
2022-12-18T19:29:01.465Z,20.20
2022-12-18T19:31:33.347Z,18.13
2022-12-18T19:34:01.939Z,17.97
2022-12-18T19:36:31.001Z,17.60
2022-12-18T19:39:00.104Z,17.42
2022-12-18T19:41:31.282Z,17.60
2022-12-18T19:43:59.553Z,18.30
2022-12-18T19:46:26.196Z,18.67
2022-12-18T19:48:52.763Z,18.67
2022-12-18T19:51:21.417Z,16.93
2022-12-18T19:53:56.460Z,17.20
2022-12-18T19:56:26.708Z,17.87
2022-12-18T19:58:53.975Z,17.77
2022-12-18T20:01:22.528Z,17.50
2022-12-18T20:03:52.301Z,17.47
2022-12-18T20:06:24.977Z,18.03
2022-12-18T20:08:58.001Z,19.33
2022-12-18T20:11:26.973Z,18.90
2022-12-18T20:13:53.605Z,19.10
2022-12-18T20:16:20.503Z,19.43
2022-12-18T20:18:49.129Z,18.27
2022-12-18T20:21:16.346Z,19.27
2022-12-18T20:23:43.312Z,18.80
2022-12-18T20:26:11.929Z,18.10
2022-12-18T20:28:39.278Z,16.80
2022-12-18T20:31:13.863Z,18.23
2022-12-18T20:33:42.241Z,17.87
2022-12-18T20:36:13.698Z,17.70
2022-12-18T20:38:41.565Z,17.17
2022-12-18T20:41:10.734Z,17.93
2022-12-18T20:43:39.163Z,19.25
2022-12-18T20:46:09.093Z,17.97
2022-12-18T20:51:05.795Z,16.00
2022-12-18T20:53:33.097Z,17.07
2022-12-18T20:55:59.922Z,17.27
2022-12-18T20:58:26.529Z,16.97
2022-12-18T21:01:04.840Z,18.70
2022-12-18T21:03:31.574Z,16.40
2022-12-18T21:05:58.166Z,16.30
2022-12-18T21:08:24.990Z,15.40
2022-12-18T21:10:51.540Z,16.73
2022-12-18T21:13:20.836Z,15.52
2022-12-18T21:15:47.540Z,16.07
2022-12-18T21:18:15.429Z,15.90
2022-12-18T21:20:42.200Z,16.03
2022-12-18T21:23:15.720Z,16.17
2022-12-18T21:25:43.558Z,15.30
2022-12-18T21:28:10.082Z,17.90
2022-12-18T21:30:36.909Z,15.83
2022-12-18T21:33:03.632Z,15.47
2022-12-18T21:35:32.179Z,15.60
2022-12-18T21:37:58.891Z,15.80
2022-12-18T21:40:25.460Z,16.37
2022-12-18T21:43:11.278Z,14.97
2022-12-18T21:45:43.912Z,15.93
2022-12-18T21:48:10.500Z,14.33
2022-12-18T21:50:38.397Z,14.77
2022-12-18T21:53:04.916Z,15.77
2022-12-18T21:55:31.456Z,15.37
2022-12-18T21:57:58.027Z,15.60
2022-12-18T22:00:24.863Z,14.67
2022-12-18T22:03:17.101Z,14.73
2022-12-18T22:05:39.340Z,16.50
2022-12-18T22:08:06.671Z,14.60
2022-12-18T22:10:33.600Z,16.73
2022-12-18T22:13:00.229Z,14.80
2022-12-18T22:15:26.788Z,14.37
2022-12-18T22:17:57.558Z,16.13
2022-12-18T22:20:27.145Z,14.27
2022-12-18T22:22:55.052Z,15.80
2022-12-18T22:25:21.627Z,15.03
2022-12-18T22:28:08.160Z,15.50
2022-12-18T22:30:34.801Z,14.97
2022-12-18T22:33:02.274Z,14.70
2022-12-18T22:35:28.981Z,14.27
2022-12-18T22:37:58.377Z,15.37
2022-12-18T22:40:26.829Z,15.88
2022-12-18T22:42:53.614Z,16.27
2022-12-18T22:45:20.506Z,14.53
2022-12-18T22:47:47.117Z,17.57
2022-12-18T22:50:14.446Z,16.90
2022-12-18T22:52:41.065Z,16.13
2022-12-18T22:55:09.545Z,15.07
2022-12-18T22:57:36.253Z,14.63
2022-12-18T23:00:05.168Z,16.27
2022-12-18T23:02:31.851Z,15.00
2022-12-18T23:04:58.484Z,15.67
2022-12-18T23:07:25.041Z,15.40
2022-12-18T23:09:51.631Z,16.60
2022-12-18T23:12:27.528Z,16.13
2022-12-18T23:14:54.288Z,17.23
2022-12-18T23:17:20.815Z,13.77
2022-12-18T23:19:49.391Z,15.33
2022-12-18T23:22:16.246Z,15.93
2022-12-18T23:24:42.838Z,15.30
2022-12-18T23:27:11.798Z,14.80
2022-12-18T23:29:40.529Z,15.60
2022-12-18T23:32:07.252Z,16.23
2022-12-18T23:34:33.837Z,16.90
2022-12-18T23:37:01.071Z,16.73
2022-12-18T23:39:29.785Z,16.03
2022-12-18T23:41:56.838Z,16.05
2022-12-18T23:44:23.548Z,15.70
2022-12-18T23:46:51.576Z,15.27
2022-12-18T23:49:18.387Z,16.63
2022-12-18T23:51:44.970Z,22.53
2022-12-18T23:54:11.505Z,16.67
2022-12-18T23:56:38.067Z,15.63
2022-12-18T23:59:04.722Z,17.30
